Time;durP1;ratioP1;P1;durP2;ratioP2;P2;SDS_P1;SDS_P2;PMS_P1;PMS_P2;Temp;Humidity;BMP_temperature;BMP_pressure;BME280_temperature;BME280_humidity;BME280_pressure;Samples;Min_cycle;Max_cycle;Signal;HPM_P1;HPM_P2
2023/05/15 00:01:37;;;;;;;91.78;39.35;;;;;;;10.02;100.00;101603.03;5206811;28;20505;-72
2023/05/15 00:04:08;;;;;;;83.95;39.30;;;;;;;10.03;100.00;101602.88;5205500;28;20029;-72
2023/05/15 00:06:38;;;;;;;89.85;38.55;;;;;;;10.02;100.00;101603.03;5207549;28;20109;-72
2023/05/15 00:09:09;;;;;;;82.45;38.20;;;;;;;10.03;100.00;101607.41;5206648;28;20029;-72
2023/05/15 00:11:40;;;;;;;85.15;36.65;;;;;;;10.03;100.00;101602.03;5208062;28;20033;-72
2023/05/15 00:14:10;;;;;;;84.22;38.17;;;;;;;10.01;100.00;101594.16;5206448;28;20482;-72
2023/05/15 00:16:41;;;;;;;85.03;37.45;;;;;;;9.98;100.00;101593.59;5207081;28;20045;-72
2023/05/15 00:19:12;;;;;;;80.85;37.63;;;;;;;9.94;100.00;101592.19;5206230;28;20029;-72
2023/05/15 00:21:42;;;;;;;82.72;38.35;;;;;;;9.90;100.00;101578.25;5210254;28;20022;-72
2023/05/15 00:24:13;;;;;;;88.72;37.42;;;;;;;9.88;100.00;101588.25;5206695;28;20082;-72
2023/05/15 00:26:43;;;;;;;77.82;35.75;;;;;;;9.87;100.00;101586.56;5224285;28;20107;-72
2023/05/15 00:29:14;;;;;;;73.13;35.80;;;;;;;9.86;100.00;101593.75;5210974;28;20025;-71
2023/05/15 00:31:44;;;;;;;78.10;37.47;;;;;;;9.88;100.00;101585.56;5225011;28;20517;-72
2023/05/15 00:34:15;;;;;;;78.00;37.53;;;;;;;9.84;100.00;101581.50;5224328;28;20037;-72
2023/05/15 00:36:45;;;;;;;89.78;37.78;;;;;;;9.79;100.00;101573.88;5224306;28;20047;-72
2023/05/15 00:39:16;;;;;;;80.65;37.00;;;;;;;9.76;100.00;101576.00;5224373;28;20017;-72
2023/05/15 00:41:47;;;;;;;80.00;37.22;;;;;;;9.69;100.00;101569.50;5217359;28;20044;-72
2023/05/15 00:44:19;;;;;;;79.68;36.35;;;;;;;9.62;100.00;101565.72;5203385;28;20043;-72
2023/05/15 00:46:52;;;;;;;81.13;36.33;;;;;;;9.54;100.00;101572.66;5217876;28;20020;-72
2023/05/15 00:49:22;;;;;;;85.55;38.67;;;;;;;9.48;100.00;101567.84;5224484;28;20028;-72
2023/05/15 00:51:53;;;;;;;87.35;37.55;;;;;;;9.45;100.00;101575.31;5208134;28;20033;-72
2023/05/15 00:54:23;;;;;;;83.35;37.42;;;;;;;9.45;100.00;101575.31;5218118;28;20020;-72
2023/05/15 00:56:57;;;;;;;89.03;40.08;;;;;;;9.46;100.00;101568.97;5234508;28;20109;-72
2023/05/15 00:59:29;;;;;;;86.50;38.85;;;;;;;9.49;100.00;101579.41;5215388;28;20017;-72
2023/05/15 01:01:59;;;;;;;81.40;37.40;;;;;;;9.49;100.00;101574.91;5224821;28;20392;-72
2023/05/15 01:04:30;;;;;;;94.85;39.63;;;;;;;9.49;100.00;101572.22;5224306;28;20029;-72
2023/05/15 01:07:01;;;;;;;86.07;40.05;;;;;;;9.49;100.00;101574.06;5223908;28;20489;-72
2023/05/15 01:09:33;;;;;;;100.90;40.70;;;;;;;9.50;100.00;101567.72;5208958;28;20128;-72
2023/05/15 01:12:04;;;;;;;86.72;38.42;;;;;;;9.50;100.00;101560.53;5213034;28;20415;-72
2023/05/15 01:14:35;;;;;;;93.25;38.33;;;;;;;9.50;100.00;101557.00;5224180;28;20028;-72
2023/05/15 01:17:05;;;;;;;90.57;39.35;;;;;;;9.49;100.00;101564.19;5213548;28;20029;-72
2023/05/15 01:19:56;;;;;;;85.30;37.95;;;;;;;9.51;100.00;101564.88;5223513;28;20721;-72
2023/05/15 01:22:40;;;;;;;83.68;39.25;;;;;;;9.53;100.00;101560.22;5224056;28;20031;-72
2023/05/15 01:25:36;;;;;;;89.22;38.97;;;;;;;9.53;100.00;101559.38;5223983;28;20104;-72
2023/05/15 01:28:14;;;;;;;82.28;38.90;;;;;;;9.51;100.00;101556.84;5210544;28;20031;-72
2023/05/15 01:30:47;;;;;;;87.38;37.35;;;;;;;9.46;100.00;101545.72;5223926;28;20394;-72
2023/05/15 01:33:25;;;;;;;85.00;36.15;;;;;;;9.40;100.00;101550.81;5223948;28;20025;-72
2023/05/15 01:36:11;;;;;;;92.35;40.15;;;;;;;9.39;100.00;101566.03;5217760;28;20121;-72
2023/05/15 01:38:47;;;;;;;86.85;38.97;;;;;;;9.38;100.00;101563.47;5218280;28;20097;-72
2023/05/15 01:41:40;;;;;;;91.30;39.08;;;;;;;9.36;100.00;101563.63;5207000;28;20463;-72
2023/05/15 01:44:18;;;;;;;88.45;38.63;;;;;;;9.37;100.00;101559.09;5203083;28;20033;-72
2023/05/15 01:46:54;;;;;;;95.32;39.33;;;;;;;9.30;100.00;101553.47;5207539;28;20149;-72
2023/05/15 01:49:27;;;;;;;90.22;40.17;;;;;;;9.30;100.00;101561.50;5212436;28;20020;-72
2023/05/15 01:52:05;;;;;;;93.30;39.08;;;;;;;9.27;100.00;101564.47;5209709;28;20436;-72
2023/05/15 01:54:37;;;;;;;98.85;39.30;;;;;;;9.27;100.00;101567.13;5209635;28;20029;-72
2023/05/15 01:57:09;;;;;;;94.82;39.10;;;;;;;9.28;100.00;101576.84;5203993;28;20478;-72
2023/05/15 01:59:41;;;;;;;99.70;41.53;;;;;;;9.29;100.00;101554.47;5205069;28;20493;-72
2023/05/15 02:02:14;;;;;;;93.45;40.30;;;;;;;9.29;100.00;101559.81;5204186;28;20021;-72
2023/05/15 02:04:48;;;;;;;95.97;41.42;;;;;;;9.30;100.00;101559.69;5205075;28;20040;-72
2023/05/15 02:07:19;;;;;;;108.78;44.20;;;;;;;9.32;100.00;101564.88;5203906;28;20030;-72
2023/05/15 02:09:51;;;;;;;111.32;44.45;;;;;;;9.37;100.00;101556.44;5205432;28;20513;-72
2023/05/15 02:12:22;;;;;;;107.80;43.00;;;;;;;9.42;100.00;101557.69;5202928;28;20402;-72
2023/05/15 02:14:54;;;;;;;107.60;43.88;;;;;;;9.48;100.00;101567.00;5202653;28;20542;-72
2023/05/15 02:17:28;;;;;;;115.20;46.17;;;;;;;9.46;100.00;101567.16;5215324;28;20021;-72
2023/05/15 02:19:59;;;;;;;116.95;43.80;;;;;;;9.46;100.00;101567.16;5211408;28;20013;-72
2023/05/15 02:22:29;;;;;;;116.63;45.65;;;;;;;9.42;100.00;101564.88;5223030;28;20028;-72
2023/05/15 02:25:00;;;;;;;130.73;49.45;;;;;;;9.39;100.00;101570.50;5214576;28;20067;-72
2023/05/15 02:27:44;;;;;;;124.68;47.28;;;;;;;9.39;100.00;101571.38;5215589;28;20391;-73
2023/05/15 02:30:52;;;;;;;136.75;51.63;;;;;;;9.44;100.00;101568.25;5218275;28;20021;-72
2023/05/15 02:33:41;;;;;;;139.07;50.72;;;;;;;9.47;100.00;101568.81;5214271;28;20037;-72
2023/05/15 02:36:19;;;;;;;134.45;49.03;;;;;;;9.54;100.00;101569.13;5215391;28;20045;-72
2023/05/15 02:38:52;;;;;;;151.05;54.15;;;;;;;9.61;100.00;101570.25;5218182;28;20033;-72
2023/05/15 02:41:23;;;;;;;164.02;56.70;;;;;;;9.71;100.00;101572.91;5215798;28;20033;-72
2023/05/15 02:43:55;;;;;;;150.45;53.75;;;;;;;9.76;100.00;101567.97;5205985;28;20032;-72
2023/05/15 02:46:26;;;;;;;162.48;55.90;;;;;;;9.83;100.00;101561.03;5202136;28;20032;-72
2023/05/15 02:48:57;;;;;;;153.02;54.22;;;;;;;9.83;100.00;101563.72;5202280;28;20029;-73
2023/05/15 02:51:28;;;;;;;169.98;54.60;;;;;;;9.86;100.00;101569.63;5215225;28;20029;-72
2023/05/15 02:54:00;;;;;;;156.50;51.90;;;;;;;9.90;100.00;101551.44;5217793;28;20059;-72
2023/05/15 02:56:31;;;;;;;166.23;54.60;;;;;;;9.94;100.00;101557.34;5222516;28;20037;-73
2023/05/15 02:59:02;;;;;;;172.63;56.05;;;;;;;9.97;100.00;101554.38;5223538;28;20446;-73
2023/05/15 03:01:32;;;;;;;159.50;54.28;;;;;;;10.00;100.00;101554.09;5223182;28;20025;-73
2023/05/15 03:04:03;;;;;;;167.70;53.38;;;;;;;10.00;100.00;101560.31;5213488;28;20038;-73
2023/05/15 03:06:34;;;;;;;149.98;51.50;;;;;;;10.03;100.00;101557.31;5205427;28;20036;-73
2023/05/15 03:09:04;;;;;;;161.43;51.60;;;;;;;10.06;100.00;101565.06;5223245;28;20431;-72
2023/05/15 03:11:35;;;;;;;159.20;54.53;;;;;;;10.08;100.00;101559.56;5223072;28;20025;-72
2023/05/15 03:14:05;;;;;;;153.38;50.95;;;;;;;10.05;100.00;101550.00;5211535;28;20036;-72
2023/05/15 03:16:37;;;;;;;149.80;51.00;;;;;;;10.02;100.00;101552.09;5208013;28;20108;-72
2023/05/15 03:19:08;;;;;;;156.63;53.33;;;;;;;9.98;100.00;101551.53;5226114;28;20474;-72
2023/05/15 03:21:38;;;;;;;178.35;55.47;;;;;;;9.98;100.00;101548.03;5223077;28;20090;-72
2023/05/15 03:24:09;;;;;;;167.88;55.65;;;;;;;9.99;100.00;101555.06;5211437;28;20021;-72
2023/05/15 03:26:41;;;;;;;196.15;58.75;;;;;;;9.98;100.00;101548.84;5214344;28;20500;-72
2023/05/15 03:29:12;;;;;;;167.93;55.33;;;;;;;10.00;100.00;101546.06;5225863;28;20120;-72
2023/05/15 03:31:42;;;;;;;172.52;53.90;;;;;;;9.98;100.00;101546.19;5226792;28;20147;-72
2023/05/15 03:34:13;;;;;;;170.18;55.70;;;;;;;10.01;100.00;101542.38;5221911;28;20021;-72
2023/05/15 03:36:43;;;;;;;168.63;55.05;;;;;;;9.97;100.00;101549.84;5205294;28;20086;-73
2023/05/15 03:39:14;;;;;;;158.60;49.67;;;;;;;10.01;100.00;101551.25;5224415;28;20013;-72
2023/05/15 03:41:45;;;;;;;167.77;52.72;;;;;;;10.00;100.00;101548.75;5205871;28;20123;-72
2023/05/15 03:44:16;;;;;;;161.82;52.53;;;;;;;10.00;100.00;101554.94;5226291;28;20530;-72
2023/05/15 03:46:46;;;;;;;150.35;49.65;;;;;;;9.98;100.00;101548.84;5225691;28;20108;-72
2023/05/15 03:49:17;;;;;;;149.48;51.20;;;;;;;9.97;100.00;101554.38;5226190;28;20020;-72
2023/05/15 03:51:47;;;;;;;148.23;50.50;;;;;;;9.97;100.00;101544.50;5225652;28;20055;-72
2023/05/15 03:54:18;;;;;;;149.95;51.38;;;;;;;9.95;100.00;101549.16;5220695;28;20048;-72
2023/05/15 03:56:48;;;;;;;152.88;48.88;;;;;;;9.96;100.00;101537.44;5209160;28;20017;-72
2023/05/15 03:59:19;;;;;;;145.80;50.17;;;;;;;9.93;100.00;101543.09;5205432;28;20024;-72
2023/05/15 04:01:49;;;;;;;150.32;51.42;;;;;;;9.91;100.00;101547.75;5209049;28;20021;-72
2023/05/15 04:04:20;;;;;;;141.80;50.55;;;;;;;9.89;100.00;101543.53;5205560;28;20017;-72
2023/05/15 04:06:50;;;;;;;146.50;52.38;;;;;;;9.90;100.00;101542.56;5207523;28;20026;-73
2023/05/15 04:09:21;;;;;;;134.93;51.05;;;;;;;9.90;100.00;101537.19;5217604;28;20021;-72
2023/05/15 04:11:51;;;;;;;147.43;50.80;;;;;;;9.90;100.00;101543.41;5207528;28;20538;-72
2023/05/15 04:14:22;;;;;;;154.10;52.30;;;;;;;9.87;100.00;101543.69;5216646;28;20032;-73
2023/05/15 04:16:52;;;;;;;146.38;50.67;;;;;;;9.90;100.00;101546.09;5207467;28;20021;-72
2023/05/15 04:19:23;;;;;;;132.55;50.65;;;;;;;9.86;100.00;101550.03;5206969;28;20352;-72
2023/05/15 04:21:54;;;;;;;143.88;51.95;;;;;;;9.83;100.00;101542.28;5214152;28;20018;-72
2023/05/15 04:24:24;;;;;;;132.20;51.42;;;;;;;9.81;100.00;101542.44;5218243;28;20063;-72
2023/05/15 04:26:55;;;;;;;132.35;50.67;;;;;;;9.82;100.00;101537.91;5204729;28;20474;-72
2023/05/15 04:29:25;;;;;;;143.93;50.70;;;;;;;9.84;100.00;101538.63;5217936;28;20071;-73
2023/05/15 04:31:55;;;;;;;142.93;49.63;;;;;;;9.84;100.00;101538.63;5205416;28;20022;-72
2023/05/15 04:34:28;;;;;;;150.43;52.25;;;;;;;9.86;100.00;101537.47;5211402;28;20458;-72
2023/05/15 04:36:58;;;;;;;153.55;57.30;;;;;;;9.93;100.00;101539.56;5211750;28;20444;-72
2023/05/15 04:39:29;;;;;;;148.77;53.38;;;;;;;9.92;100.00;101543.25;5210332;28;20052;-72
2023/05/15 04:41:59;;;;;;;149.60;54.20;;;;;;;9.93;100.00;101540.41;5217068;28;20052;-73
2023/05/15 04:44:30;;;;;;;164.52;59.38;;;;;;;9.96;100.00;101545.50;5204593;28;20025;-72
2023/05/15 04:47:01;;;;;;;141.95;51.33;;;;;;;10.01;100.00;101545.06;5219584;28;20029;-72
2023/05/15 04:49:31;;;;;;;143.57;54.45;;;;;;;10.01;100.00;101537.03;5214905;28;20021;-72
2023/05/15 04:52:02;;;;;;;134.30;51.70;;;;;;;10.01;100.00;101542.38;5205400;28;20094;-73
2023/05/15 04:54:33;;;;;;;125.82;50.15;;;;;;;10.09;100.00;101542.47;5209629;28;20065;-72
2023/05/15 04:57:05;;;;;;;131.00;49.90;;;;;;;10.13;100.00;101547.41;5204524;28;20449;-72
2023/05/15 04:59:35;;;;;;;117.28;48.28;;;;;;;10.11;100.00;101546.72;5203486;28;20025;-72
2023/05/15 05:02:08;;;;;;;123.53;49.78;;;;;;;10.16;100.00;101550.81;5217469;28;20553;-73
2023/05/15 05:04:42;;;;;;;121.60;47.90;;;;;;;10.21;100.00;101551.22;5204566;28;20033;-72
2023/05/15 05:07:12;;;;;;;133.48;51.40;;;;;;;10.26;100.00;101563.22;5204092;28;20359;-72
2023/05/15 05:09:43;;;;;;;129.25;51.08;;;;;;;10.34;100.00;101567.81;5204803;28;20033;-73
2023/05/15 05:12:13;;;;;;;128.23;51.42;;;;;;;10.41;100.00;101566.25;5204360;28;20037;-73
2023/05/15 05:14:44;;;;;;;137.30;54.65;;;;;;;10.44;100.00;101579.38;5207407;28;20070;-73
2023/05/15 05:17:15;;;;;;;126.25;51.78;;;;;;;10.54;100.00;101576.63;5222630;28;20025;-73
2023/05/15 05:19:45;;;;;;;108.95;49.42;;;;;;;10.54;100.00;101574.81;5208081;28;20600;-73
2023/05/15 05:22:16;;;;;;;115.32;48.35;;;;;;;10.55;100.00;101579.19;5211435;28;20379;-73
2023/05/15 05:24:46;;;;;;;102.85;45.17;;;;;;;10.57;100.00;101576.34;5210425;28;20036;-73
2023/05/15 05:27:17;;;;;;;99.18;45.97;;;;;;;10.58;100.00;101570.81;5223570;28;20024;-73
2023/05/15 05:29:47;;;;;;;106.70;46.50;;;;;;;10.65;100.00;101578.31;5209303;28;20173;-73
2023/05/15 05:32:18;;;;;;;105.10;45.70;;;;;;;10.67;100.00;101577.16;5220533;28;20390;-73
2023/05/15 05:34:49;;;;;;;107.78;45.88;;;;;;;10.71;100.00;101575.88;5209759;28;20028;-73
2023/05/15 05:37:19;;;;;;;106.57;45.85;;;;;;;10.76;100.00;101578.09;5216149;28;20082;-72
2023/05/15 05:39:50;;;;;;;104.80;45.63;;;;;;;10.83;100.00;101587.22;5207471;28;20036;-73
2023/05/15 05:42:20;;;;;;;110.97;47.60;;;;;;;10.84;100.00;101583.53;5217905;28;20023;-72
2023/05/15 05:44:51;;;;;;;106.68;46.08;;;;;;;10.80;100.00;101584.88;5219372;28;20020;-72
2023/05/15 05:47:21;;;;;;;109.63;47.67;;;;;;;10.71;100.00;101580.38;5218221;28;20428;-72
2023/05/15 05:49:53;;;;;;;109.15;47.60;;;;;;;10.70;100.00;101581.38;5220817;28;20491;-73
2023/05/15 05:52:24;;;;;;;109.93;47.33;;;;;;;10.72;100.00;101580.22;5202943;28;20021;-73
2023/05/15 05:54:55;;;;;;;115.32;50.55;;;;;;;10.76;100.00;101578.09;5222094;28;20025;-72
2023/05/15 05:57:25;;;;;;;118.53;50.30;;;;;;;10.73;100.00;101565.81;5223587;28;20029;-72
2023/05/15 05:59:56;;;;;;;121.55;51.65;;;;;;;10.83;100.00;101574.66;5223609;28;20047;-73
2023/05/15 06:02:26;;;;;;;133.52;53.92;;;;;;;10.91;100.00;101579.28;5223641;28;20661;-72
2023/05/15 06:04:57;;;;;;;128.82;53.03;;;;;;;10.99;100.00;101578.50;5223224;28;20052;-73
2023/05/15 06:07:27;;;;;;;140.63;55.28;;;;;;;11.01;100.00;101571.16;5221162;28;20119;-73
2023/05/15 06:09:58;;;;;;;129.52;54.92;;;;;;;11.06;100.00;101575.09;5214417;28;20045;-72
2023/05/15 06:12:29;;;;;;;131.75;54.45;;;;;;;11.09;100.00;101579.28;5195057;28;20064;-73
2023/05/15 06:14:59;;;;;;;133.32;55.22;;;;;;;11.08;100.00;101581.13;5206884;28;20021;-73
2023/05/15 06:17:30;;;;;;;129.00;51.40;;;;;;;11.08;100.00;101582.97;5218018;28;20037;-73
2023/05/15 06:20:01;;;;;;;123.53;51.42;;;;;;;11.13;100.00;101572.63;5203848;28;20459;-73
2023/05/15 06:22:32;;;;;;;119.88;49.88;;;;;;;11.13;100.00;101575.31;5221756;28;20163;-72
2023/05/15 06:25:05;;;;;;;121.93;53.58;;;;;;;11.19;100.00;101581.91;5227532;28;20108;-73
2023/05/15 06:27:35;;;;;;;119.40;51.53;;;;;;;11.27;100.00;101577.47;5209298;28;20025;-72
2023/05/15 06:30:07;;;;;;;106.55;46.72;;;;;;;11.40;100.00;101571.72;5216225;28;20390;-72
2023/05/15 06:32:39;;;;;;;100.60;45.42;;;;;;;11.49;100.00;101576.16;5221580;28;20033;-73
2023/05/15 06:35:09;;;;;;;114.20;49.53;;;;;;;11.55;100.00;101564.81;5228435;28;20033;-73
2023/05/15 06:37:40;;;;;;;110.57;48.25;;;;;;;11.60;100.00;101572.41;5218540;28;20482;-72
2023/05/15 06:40:11;;;;;;;109.05;47.13;;;;;;;11.68;100.00;101573.31;5227584;28;20017;-73
2023/05/15 06:42:41;;;;;;;101.07;47.45;;;;;;;11.77;100.00;101574.22;5220402;28;20017;-72
2023/05/15 06:45:12;;;;;;;110.70;50.55;;;;;;;11.84;100.00;101567.22;5218794;28;20036;-72
2023/05/15 06:47:42;;;;;;;107.30;47.72;;;;;;;11.97;100.00;101563.31;5224819;28;20017;-72
2023/05/15 06:50:13;;;;;;;109.53;47.83;;;;;;;11.97;100.00;101566.84;5226830;28;20171;-72
2023/05/15 06:52:44;;;;;;;106.10;49.53;;;;;;;12.02;100.00;101553.75;5231297;28;20021;-72
2023/05/15 06:55:14;;;;;;;109.15;49.72;;;;;;;12.19;100.00;101552.84;5227475;28;20032;-72
2023/05/15 06:57:45;;;;;;;106.70;48.33;;;;;;;12.30;100.00;101556.25;5223776;28;20025;-72
2023/05/15 07:00:16;;;;;;;105.60;48.97;;;;;;;12.38;100.00;101549.06;5226670;28;20013;-72
2023/05/15 07:02:47;;;;;;;99.35;47.53;;;;;;;12.54;100.00;101544.75;5223284;28;20021;-72
2023/05/15 07:05:17;;;;;;;105.50;51.22;;;;;;;12.62;100.00;101547.50;5219700;28;20032;-72
2023/05/15 07:07:48;;;;;;;105.38;48.55;;;;;;;12.72;100.00;101550.06;5232164;28;20107;-72
2023/05/15 07:10:18;;;;;;;106.97;49.08;;;;;;;12.79;100.00;101553.78;5233420;28;20032;-72
2023/05/15 07:12:49;;;;;;;106.63;49.67;;;;;;;12.87;100.00;101562.72;5235721;28;20066;-72
2023/05/15 07:15:19;;;;;;;108.90;48.83;;;;;;;12.93;100.00;101555.84;5221025;28;20090;-72
2023/05/15 07:17:50;;;;;;;112.57;49.40;;;;;;;13.20;100.00;101562.78;5220393;28;20051;-72
2023/05/15 07:20:21;;;;;;;110.60;48.83;;;;;;;13.41;100.00;101556.97;5229511;28;20021;-72
2023/05/15 07:22:51;;;;;;;101.78;46.25;;;;;;;13.50;100.00;101552.41;5223447;28;20021;-72
2023/05/15 07:25:23;;;;;;;105.18;48.55;;;;;;;13.65;100.00;101548.88;5227807;28;20021;-72
2023/05/15 07:27:53;;;;;;;105.07;48.08;;;;;;;14.18;100.00;101552.00;5229346;28;20099;-72
2023/05/15 07:30:24;;;;;;;107.53;49.38;;;;;;;14.61;100.00;101550.72;5237157;28;20035;-72
2023/05/15 07:32:55;;;;;;;104.88;49.33;;;;;;;14.75;100.00;101547.25;5221912;28;20025;-72
2023/05/15 07:35:25;;;;;;;95.00;46.58;;;;;;;14.94;100.00;101540.56;5221512;28;20386;-72
2023/05/15 07:37:56;;;;;;;94.03;46.40;;;;;;;14.82;100.00;101547.41;5232842;28;20059;-72
2023/05/15 07:40:26;;;;;;;97.80;47.72;;;;;;;14.72;100.00;101544.91;5225073;28;20013;-72
2023/05/15 07:42:57;;;;;;;95.80;46.95;;;;;;;14.63;100.00;101545.13;5228519;28;20166;-73
2023/05/15 07:45:28;;;;;;;105.45;48.30;;;;;;;14.65;100.00;101543.06;5225178;28;20020;-72
2023/05/15 07:48:11;;;;;;;101.45;46.80;;;;;;;14.60;100.00;101545.47;5224754;28;20664;-73
2023/05/15 07:50:43;;;;;;;84.25;42.38;;;;;;;15.15;100.00;101539.06;5229039;28;20021;-72
2023/05/15 07:53:15;;;;;;;93.57;45.10;;;;;;;15.38;100.00;101530.97;5222342;28;20431;-71
2023/05/15 07:55:46;;;;;;;95.00;43.88;;;;;;;15.31;100.00;101530.00;5224391;28;20093;-71
2023/05/15 07:58:16;;;;;;;96.93;45.97;;;;;;;15.09;100.00;101526.28;5230068;28;20024;-71
2023/05/15 08:00:47;;;;;;;90.82;43.70;;;;;;;14.85;100.00;101528.13;5230598;28;20042;-71
2023/05/15 08:03:17;;;;;;;84.25;41.15;;;;;;;15.31;100.00;101530.00;5222869;28;20116;-71
2023/05/15 08:05:48;;;;;;;82.85;41.25;;;;;;;15.53;100.00;101534.56;5227679;28;20030;-71
2023/05/15 08:08:18;;;;;;;76.13;39.58;;;;;;;15.81;100.00;101540.25;5248851;28;20040;-71
2023/05/15 08:10:49;;;;;;;85.72;42.15;;;;;;;16.00;100.00;101525.34;5229727;28;20390;-71
2023/05/15 08:13:19;;;;;;;84.90;41.53;;;;;;;16.08;100.00;101533.41;5220592;28;20036;-71
2023/05/15 08:15:50;;;;;;;79.53;40.47;;;;;;;16.21;100.00;101536.28;5226036;28;20268;-71
2023/05/15 08:18:20;;;;;;;76.57;39.05;;;;;;;16.65;100.00;101531.88;5223231;28;20020;-71
2023/05/15 08:20:51;;;;;;;78.57;40.15;;;;;;;16.47;100.00;101537.69;5229458;28;20013;-71
2023/05/15 08:23:21;;;;;;;72.68;37.28;;;;;;;16.31;100.00;101536.00;5222228;28;20040;-71
2023/05/15 08:25:52;;;;;;;85.68;40.38;;;;;;;16.05;100.00;101531.06;5223338;28;20225;-71
2023/05/15 08:28:22;;;;;;;86.32;39.70;;;;;;;15.71;100.00;101527.00;5220528;28;20041;-71
2023/05/15 08:30:53;;;;;;;80.05;40.55;;;;;;;15.62;100.00;101538.91;5219348;28;20044;-71
2023/05/15 08:33:23;;;;;;;77.50;38.75;;;;;;;16.08;100.00;101533.41;5219802;28;20024;-71
2023/05/15 08:35:54;;;;;;;79.75;39.47;;;;;;;16.64;100.00;101531.03;5224872;28;20020;-71
2023/05/15 08:38:24;;;;;;;82.07;39.35;;;;;;;17.05;100.00;101528.59;5230051;28;20073;-71
2023/05/15 08:40:57;;;;;;;78.82;39.28;;;;;;;17.15;100.00;101533.72;5221578;28;20021;-71
2023/05/15 08:43:30;;;;;;;86.78;39.28;;;;;;;17.05;100.00;101531.31;5229186;28;20077;-71
2023/05/15 08:46:01;;;;;;;75.43;38.42;;;;;;;17.00;100.00;101535.63;5219687;28;20112;-71
2023/05/15 08:48:36;;;;;;;79.43;38.55;;;;;;;16.80;100.00;101530.84;5242511;28;20427;-71
2023/05/15 08:51:09;;;;;;;73.47;37.57;;;;;;;16.48;100.00;101536.66;5233087;28;20363;-71
2023/05/15 08:53:40;;;;;;;70.90;35.55;;;;;;;16.60;100.00;101535.13;5219499;28;20271;-71
2023/05/15 08:56:10;;;;;;;77.30;38.78;;;;;;;16.68;100.00;101536.91;5219105;28;20040;-71
2023/05/15 08:58:42;;;;;;;82.80;39.47;;;;;;;16.82;100.00;101534.22;5219519;28;20082;-72
2023/05/15 09:01:14;;;;;;;74.47;35.97;;;;;;;16.92;100.00;101533.91;5232086;28;20036;-71
2023/05/15 09:03:45;;;;;;;78.40;39.60;;;;;;;16.73;100.00;101537.22;5224776;28;20028;-71
2023/05/15 09:06:17;;;;;;;83.57;38.25;;;;;;;16.61;100.00;101533.25;5219526;28;20024;-71
2023/05/15 09:08:49;;;;;;;90.53;40.78;;;;;;;16.64;100.00;101539.16;5220704;28;20493;-71
2023/05/15 09:11:21;;;;;;;96.45;41.03;;;;;;;16.67;100.00;101548.78;5219526;28;20032;-71
2023/05/15 09:13:52;;;;;;;81.47;39.05;;;;;;;16.71;100.00;101539.22;5225488;28;20075;-71
2023/05/15 09:16:22;;;;;;;80.75;37.75;;;;;;;16.63;100.00;101537.47;5226299;28;20427;-72
2023/05/15 09:18:53;;;;;;;88.82;40.60;;;;;;;16.57;100.00;101541.78;5234918;28;20028;-72
2023/05/15 09:21:26;;;;;;;82.47;38.97;;;;;;;16.78;100.00;101535.63;5219446;28;20513;-71
2023/05/15 09:24:17;;;;;;;83.13;38.20;;;;;;;16.72;100.00;101539.09;5228340;28;20029;-72
2023/05/15 09:27:01;;;;;;;85.80;40.83;;;;;;;16.56;100.00;101544.66;5228661;28;20017;-71
2023/05/15 09:29:34;;;;;;;90.97;40.17;;;;;;;16.76;100.00;101539.53;5220281;28;20023;-71
2023/05/15 09:32:08;;;;;;;91.35;41.45;;;;;;;17.34;100.00;101540.38;5226502;28;20025;-71
2023/05/15 09:34:41;;;;;;;83.53;39.47;;;;;;;17.88;100.00;101541.72;5222435;28;20070;-71
2023/05/15 09:37:28;;;;;;;86.75;38.97;;;;;;;17.79;100.00;101533.72;5226711;28;20025;-71
2023/05/15 09:40:17;;;;;;;84.03;39.22;;;;;;;17.89;100.00;101541.50;5230124;28;20025;-71
2023/05/15 09:42:51;;;;;;;95.05;44.10;;;;;;;17.67;100.00;101548.84;5227265;28;20480;-72
2023/05/15 09:45:24;;;;;;;90.88;43.00;;;;;;;17.35;100.00;101555.63;5219139;28;20398;-72
2023/05/15 09:47:56;;;;;;;91.97;42.95;;;;;;;17.43;100.00;101549.22;5223535;28;20020;-72
2023/05/15 09:50:44;;;;;;;93.28;42.58;;;;;;;17.53;100.00;101549.75;5233535;28;20106;-72
2023/05/15 09:53:14;;;;;;;88.80;41.38;;;;;;;17.96;100.00;101552.41;5226979;28;20436;-72
2023/05/15 09:55:46;;;;;;;90.50;41.72;;;;;;;18.72;100.00;101553.28;5228642;28;20039;-72
2023/05/15 09:58:18;;;;;;;97.05;43.38;;;;;;;18.94;100.00;101554.00;5221197;28;20051;-72
2023/05/15 10:00:48;;;;;;;101.65;45.08;;;;;;;18.70;100.00;101555.38;5228088;28;20024;-72
2023/05/15 10:03:19;;;;;;;94.38;42.42;;;;;;;18.53;100.00;101548.59;5226966;28;20543;-72
2023/05/15 10:05:58;;;;;;;94.88;43.60;;;;;;;18.35;100.00;101549.09;5226748;28;20017;-72
2023/05/15 10:08:29;;;;;;;100.80;45.03;;;;;;;18.45;100.00;101551.47;5224835;28;20486;-72
2023/05/15 10:11:00;;;;;;;100.93;45.95;;;;;;;18.31;100.00;101542.41;5220042;28;20043;-72
2023/05/15 10:13:33;;;;;;;103.05;46.60;;;;;;;18.44;100.00;101550.63;5220877;28;20064;-72
2023/05/15 10:16:04;;;;;;;91.75;42.35;;;;;;;18.48;100.00;101546.47;5222098;28;20112;-72
2023/05/15 10:18:37;;;;;;;95.80;45.92;;;;;;;18.63;100.00;101546.34;5226559;28;20036;-71
2023/05/15 10:21:08;;;;;;;102.07;46.97;;;;;;;18.77;100.00;101544.53;5222662;28;20032;-72
2023/05/15 10:23:41;;;;;;;92.72;43.72;;;;;;;18.77;100.00;101547.25;5220817;28;20051;-72
2023/05/15 10:26:34;;;;;;;96.70;44.50;;;;;;;18.49;100.00;101548.16;5231356;28;20029;-72
2023/05/15 10:29:07;;;;;;;96.95;43.92;;;;;;;18.33;100.00;101552.03;5226282;28;20029;-72
2023/05/15 10:31:39;;;;;;;97.93;46.30;;;;;;;17.92;100.00;101541.09;5233533;28;20444;-71
2023/05/15 10:34:09;;;;;;;98.32;43.58;;;;;;;17.93;100.00;101542.78;5234212;28;20032;-72
2023/05/15 10:36:41;;;;;;;99.75;44.75;;;;;;;17.41;100.00;101545.84;5231976;28;20359;-72
2023/05/15 10:39:11;;;;;;;107.20;45.45;;;;;;;16.98;100.00;101543.97;5237717;28;20016;-72
2023/05/15 10:41:44;;;;;;;105.03;46.83;;;;;;;16.78;100.00;101542.91;5224438;28;20020;-72
2023/05/15 10:44:16;;;;;;;108.03;45.80;;;;;;;16.59;100.00;101544.31;5223878;28;20020;-71
2023/05/15 10:46:47;;;;;;;112.15;47.38;;;;;;;16.33;100.00;101544.78;5233212;28;20040;-72
2023/05/15 10:49:18;;;;;;;111.15;48.45;;;;;;;16.20;100.00;101550.84;5223685;28;20021;-71
2023/05/15 10:51:51;;;;;;;113.95;48.60;;;;;;;16.13;100.00;101549.09;5229735;28;20036;-71
2023/05/15 10:54:21;;;;;;;127.80;49.17;;;;;;;15.91;100.00;101557.06;5223704;28;20024;-71
2023/05/15 10:56:55;;;;;;;131.73;50.42;;;;;;;15.88;100.00;101552.03;5229523;28;20100;-71
2023/05/15 10:59:43;;;;;;;136.43;52.67;;;;;;;15.89;100.00;101553.72;5223646;28;20021;-71
2023/05/15 11:02:37;;;;;;;155.95;56.78;;;;;;;15.83;100.00;101553.63;5213929;28;20074;-71
2023/05/15 11:05:07;;;;;;;146.25;55.20;;;;;;;15.77;100.00;101553.31;5225649;28;20100;-71
2023/05/15 11:07:38;;;;;;;140.80;53.33;;;;;;;15.77;100.00;101547.91;5225627;28;20458;-71
2023/05/15 11:10:29;;;;;;;142.50;53.38;;;;;;;15.95;100.00;101546.72;5225940;28;20275;-71
2023/05/15 11:13:01;;;;;;;142.93;54.17;;;;;;;16.04;100.00;101540.19;5209911;28;20043;-71
2023/05/15 11:15:43;;;;;;;133.15;52.55;;;;;;;16.05;100.00;101552.69;5215568;28;20071;-71
2023/05/15 11:18:14;;;;;;;137.48;54.13;;;;;;;16.07;100.00;101544.41;5225921;28;20139;-71
2023/05/15 11:21:03;;;;;;;131.82;53.45;;;;;;;16.00;100.00;101560.53;5225085;28;20043;-71
2023/05/15 11:24:02;;;;;;;133.10;52.17;;;;;;;15.79;100.00;101551.25;5201372;28;20037;-71